Time;durP1;ratioP1;P1;durP2;ratioP2;P2;SDS_P1;SDS_P2;PMS_P1;PMS_P2;Temp;Humidity;BMP_temperature;BMP_pressure;BME280_temperature;BME280_humidity;BME280_pressure;Samples;Min_cycle;Max_cycle;Signal;HPM_P1;HPM_P2
2022/09/25 00:00:50;;;;;;;9.73;8.80;;;12.70;99.90;;;;;;5022977;28;20262;-78
2022/09/25 00:03:17;;;;;;;9.63;8.73;;;12.70;99.90;;;;;;5041920;28;20797;-78
2022/09/25 00:05:45;;;;;;;9.47;8.17;;;12.70;99.90;;;;;;5041574;28;20425;-78
2022/09/25 00:08:12;;;;;;;9.50;8.53;;;12.70;99.90;;;;;;5041783;28;20421;-78
2022/09/25 00:10:43;;;;;;;9.27;8.37;;;12.70;99.90;;;;;;5040970;28;20403;-78
2022/09/25 00:13:09;;;;;;;9.10;8.20;;;12.70;99.90;;;;;;5040481;28;20489;-78
2022/09/25 00:15:37;;;;;;;9.40;7.77;;;12.70;99.90;;;;;;5039542;28;20461;-78
2022/09/25 00:18:02;;;;;;;10.07;7.67;;;12.70;99.90;;;;;;5039915;28;20496;-78
2022/09/25 00:20:28;;;;;;;8.90;7.63;;;12.70;99.90;;;;;;5039535;28;20473;-78
2022/09/25 00:22:54;;;;;;;7.53;6.37;;;12.70;99.90;;;;;;5037955;28;20182;-78
2022/09/25 00:25:19;;;;;;;8.33;7.60;;;12.70;99.90;;;;;;5019477;28;20437;-78
2022/09/25 00:27:49;;;;;;;9.03;7.60;;;12.70;99.90;;;;;;5021013;28;20707;-78
2022/09/25 00:30:15;;;;;;;8.60;7.83;;;12.80;99.90;;;;;;5038368;28;20646;-78
2022/09/25 00:32:40;;;;;;;8.83;7.97;;;12.70;99.90;;;;;;5038016;28;20410;-78
2022/09/25 00:35:06;;;;;;;8.00;6.63;;;12.70;99.90;;;;;;5037761;28;20419;-78
2022/09/25 00:37:33;;;;;;;8.70;6.90;;;12.70;99.90;;;;;;5037669;28;20171;-78
2022/09/25 00:39:58;;;;;;;7.30;6.60;;;12.70;99.90;;;;;;5037367;28;20163;-78
2022/09/25 00:42:24;;;;;;;8.57;7.77;;;12.80;99.90;;;;;;5037665;28;20413;-78
2022/09/25 00:44:55;;;;;;;8.13;6.93;;;12.80;99.90;;;;;;5036865;28;20200;-77
2022/09/25 00:47:44;;;;;;;6.77;5.77;;;12.80;99.90;;;;;;5036719;28;20913;-77
2022/09/25 00:50:31;;;;;;;6.20;5.60;;;12.80;99.90;;;;;;5018012;28;20410;-78
2022/09/25 00:53:05;;;;;;;7.93;6.67;;;12.80;99.90;;;;;;5037051;28;20625;-78
2022/09/25 00:55:32;;;;;;;7.27;6.63;;;12.80;99.90;;;;;;5017723;28;20456;-77
2022/09/25 00:58:01;;;;;;;7.27;6.60;;;12.90;99.90;;;;;;5037471;28;20494;-78
2022/09/25 01:00:27;;;;;;;7.17;5.93;;;12.90;99.90;;;;;;5036533;28;20406;-78
2022/09/25 01:02:54;;;;;;;8.80;6.53;;;12.90;99.90;;;;;;5036945;28;20986;-78
2022/09/25 01:05:29;;;;;;;6.47;5.73;;;12.90;99.90;;;;;;5037465;28;20180;-78
2022/09/25 01:07:59;;;;;;;5.87;5.37;;;12.90;99.90;;;;;;5038716;28;20425;-78
2022/09/25 01:10:25;;;;;;;5.60;5.10;;;12.90;99.90;;;;;;5038228;28;20947;-77
2022/09/25 01:12:51;;;;;;;5.50;4.73;;;13.00;99.90;;;;;;5037360;28;20399;-77
2022/09/25 01:15:20;;;;;;;6.00;5.57;;;13.00;99.90;;;;;;5039626;28;20785;-79
2022/09/25 01:18:00;;;;;;;5.53;4.87;;;13.00;99.90;;;;;;5040097;28;20386;-79
2022/09/25 01:20:49;;;;;;;5.93;5.43;;;13.00;99.90;;;;;;5039435;28;20398;-78
2022/09/25 01:23:36;;;;;;;6.77;5.63;;;13.00;99.90;;;;;;5039513;28;20446;-78
2022/09/25 01:26:42;;;;;;;6.73;6.03;;;13.00;99.90;;;;;;5040886;28;20410;-78
2022/09/25 01:29:17;;;;;;;7.10;6.40;;;13.00;99.90;;;;;;5040492;28;20430;-79
2022/09/25 01:31:50;;;;;;;6.43;5.73;;;13.10;99.90;;;;;;5036849;28;20448;-79
2022/09/25 01:34:25;;;;;;;6.80;5.63;;;13.10;99.90;;;;;;5038315;28;20399;-78
2022/09/25 01:37:03;;;;;;;6.27;5.70;;;13.10;99.90;;;;;;5038882;28;20465;-79
2022/09/25 01:39:37;;;;;;;6.80;6.20;;;13.10;99.90;;;;;;5036745;28;20901;-79
2022/09/25 01:42:22;;;;;;;9.67;5.60;;;13.10;99.90;;;;;;5036250;28;20441;-79
2022/09/25 01:45:05;;;;;;;5.97;4.60;;;13.10;99.90;;;;;;5035175;28;20856;-79
2022/09/25 01:47:36;;;;;;;6.27;5.70;;;13.10;99.90;;;;;;5038629;28;20828;-79
2022/09/25 01:50:15;;;;;;;6.80;6.20;;;13.10;99.90;;;;;;5037706;28;20409;-79
2022/09/25 01:52:46;;;;;;;5.77;5.20;;;13.20;99.90;;;;;;5036634;28;20408;-79
2022/09/25 01:55:19;;;;;;;5.90;5.30;;;13.20;99.90;;;;;;5037623;28;20449;-79
2022/09/25 01:57:56;;;;;;;4.73;4.33;;;13.10;99.90;;;;;;5037555;28;20410;-78
2022/09/25 02:00:23;;;;;;;5.67;5.20;;;13.10;99.90;;;;;;5037749;28;20429;-79
2022/09/25 02:03:00;;;;;;;5.57;5.07;;;13.10;99.90;;;;;;5037147;28;20430;-79
2022/09/25 02:05:31;;;;;;;5.43;4.90;;;13.10;99.90;;;;;;5037571;28;20955;-79
2022/09/25 02:08:04;;;;;;;5.13;4.53;;;13.10;99.90;;;;;;5019255;28;20422;-79
2022/09/25 02:10:36;;;;;;;7.80;5.27;;;13.10;99.90;;;;;;5037211;28;20414;-79
2022/09/25 02:13:12;;;;;;;7.37;4.60;;;13.10;99.90;;;;;;5037917;28;20410;-79
2022/09/25 02:16:11;;;;;;;5.40;4.90;;;13.10;99.90;;;;;;5037398;28;20422;-78
2022/09/25 02:21:57;;;;;;;6.37;5.70;;;13.10;99.90;;;;;;5037233;28;20404;-79
2022/09/25 02:24:47;;;;;;;5.13;4.73;;;13.10;99.90;;;;;;5037218;28;20553;-79
2022/09/25 02:27:14;;;;;;;5.40;4.87;;;13.10;99.90;;;;;;5038528;28;20487;-79
2022/09/25 02:29:41;;;;;;;5.80;5.30;;;13.10;99.90;;;;;;5038168;28;20490;-79
2022/09/25 02:32:10;;;;;;;9.00;6.47;;;13.10;99.90;;;;;;5038527;28;20469;-79
2022/09/25 02:34:36;;;;;;;5.27;4.77;;;13.10;99.90;;;;;;5037415;28;20402;-78
2022/09/25 02:37:07;;;;;;;5.20;4.70;;;13.10;99.90;;;;;;5037878;28;20418;-79
2022/09/25 02:39:33;;;;;;;5.20;4.70;;;13.20;99.90;;;;;;5038044;28;20425;-79
2022/09/25 02:42:29;;;;;;;5.20;4.70;;;13.10;99.90;;;;;;5038208;28;20410;-78
2022/09/25 02:45:10;;;;;;;5.00;4.60;;;13.10;99.90;;;;;;5037917;28;20210;-79
2022/09/25 02:48:06;;;;;;;5.40;4.90;;;13.10;99.90;;;;;;5038906;28;20406;-79
2022/09/25 02:50:55;;;;;;;5.17;4.77;;;13.10;99.90;;;;;;5038311;28;20398;-79
2022/09/25 02:53:27;;;;;;;6.93;5.30;;;13.10;99.90;;;;;;5038476;28;20829;-79
2022/09/25 02:56:03;;;;;;;5.60;4.70;;;13.10;99.90;;;;;;5038414;28;20798;-78
2022/09/25 02:58:34;;;;;;;5.10;4.60;;;13.00;99.90;;;;;;5038291;28;20410;-79
2022/09/25 03:01:02;;;;;;;5.10;4.60;;;13.00;99.90;;;;;;5038022;28;20409;-79
2022/09/25 03:03:28;;;;;;;5.87;5.37;;;13.00;99.90;;;;;;5039072;28;20533;-79
2022/09/25 03:05:56;;;;;;;6.10;4.90;;;13.00;99.90;;;;;;5038217;28;20502;-79
2022/09/25 03:08:40;;;;;;;5.03;4.53;;;13.00;99.90;;;;;;5040833;28;20411;-78
2022/09/25 03:11:11;;;;;;;5.80;4.80;;;13.00;99.90;;;;;;5044213;28;20434;-78
2022/09/25 03:13:37;;;;;;;5.80;4.90;;;13.00;99.90;;;;;;5043780;28;20937;-78
2022/09/25 03:16:40;;;;;;;5.43;4.70;;;13.00;99.90;;;;;;5044603;28;20433;-78
2022/09/25 03:19:06;;;;;;;5.60;5.10;;;13.00;99.90;;;;;;4988581;28;20424;-79
2022/09/25 03:21:31;;;;;;;5.70;5.10;;;12.90;99.90;;;;;;5037202;28;20451;-79
2022/09/25 03:23:58;;;;;;;5.33;4.83;;;13.00;99.90;;;;;;5039109;28;20807;-78
2022/09/25 03:26:26;;;;;;;5.33;4.83;;;12.90;99.90;;;;;;5040843;28;20215;-78
2022/09/25 03:28:52;;;;;;;9.70;6.10;;;13.00;99.90;;;;;;5041021;28;20532;-78
2022/09/25 03:31:17;;;;;;;7.03;5.33;;;12.90;99.90;;;;;;5041465;28;20426;-79
2022/09/25 03:33:44;;;;;;;5.30;4.80;;;12.90;99.90;;;;;;5040623;28;20406;-79
2022/09/25 03:36:11;;;;;;;5.70;5.20;;;12.90;99.90;;;;;;5040576;28;20916;-78
2022/09/25 03:38:38;;;;;;;6.27;5.07;;;12.90;99.90;;;;;;5040998;28;20413;-79
2022/09/25 03:41:07;;;;;;;5.93;5.10;;;12.90;99.90;;;;;;5040579;28;20758;-79
2022/09/25 03:43:35;;;;;;;6.73;5.37;;;12.80;99.90;;;;;;5041792;28;20446;-79
2022/09/25 03:46:02;;;;;;;6.67;5.93;;;12.80;99.90;;;;;;5023131;28;20491;-79
2022/09/25 03:48:27;;;;;;;6.50;5.90;;;12.80;99.90;;;;;;5040438;28;20481;-79
2022/09/25 03:50:54;;;;;;;5.60;5.10;;;12.80;99.90;;;;;;5039874;28;20499;-78
2022/09/25 03:53:19;;;;;;;5.50;4.90;;;12.80;99.90;;;;;;5042431;28;20172;-79
2022/09/25 03:55:47;;;;;;;5.80;5.30;;;12.80;99.90;;;;;;5044047;28;20909;-78
2022/09/25 03:58:17;;;;;;;6.63;6.10;;;12.80;99.90;;;;;;5040950;28;20246;-79
2022/09/25 04:00:44;;;;;;;7.73;6.53;;;12.70;99.90;;;;;;5040430;28;20464;-78
2022/09/25 04:03:10;;;;;;;7.13;6.13;;;12.70;99.90;;;;;;5040691;28;20462;-79
2022/09/25 04:05:36;;;;;;;9.20;6.77;;;12.70;99.90;;;;;;5041605;28;20971;-78
2022/09/25 04:08:01;;;;;;;6.40;5.80;;;12.70;99.90;;;;;;5019546;28;20418;-79
2022/09/25 04:10:27;;;;;;;5.33;4.87;;;12.70;99.90;;;;;;5037250;28;20246;-79
2022/09/25 04:12:53;;;;;;;8.07;7.20;;;12.70;99.90;;;;;;5038612;28;20170;-79
2022/09/25 04:15:21;;;;;;;6.80;5.83;;;12.70;99.90;;;;;;5040644;28;20270;-79
2022/09/25 04:17:48;;;;;;;6.70;6.10;;;12.70;99.90;;;;;;5040474;28;20191;-79
2022/09/25 04:20:13;;;;;;;6.03;5.43;;;12.70;99.90;;;;;;5042862;28;20407;-78
2022/09/25 04:22:39;;;;;;;7.30;6.13;;;12.60;99.90;;;;;;5045523;28;20403;-78
2022/09/25 04:25:05;;;;;;;6.47;5.87;;;12.70;99.90;;;;;;5044936;28;20207;-78
2022/09/25 04:27:31;;;;;;;6.70;6.00;;;12.60;99.90;;;;;;5046511;28;20175;-78
2022/09/25 04:29:56;;;;;;;6.53;5.33;;;12.60;99.90;;;;;;5045407;28;20935;-78
2022/09/25 04:35:07;;;;;;;5.97;5.20;;;12.50;99.90;;;;;;5043604;28;20199;-77
2022/09/25 04:37:32;;;;;;;6.70;6.03;;;12.50;99.90;;;;;;5044937;28;20904;-77
2022/09/25 04:39:58;;;;;;;6.87;6.17;;;12.50;99.90;;;;;;5045261;28;20168;-77
2022/09/25 04:42:24;;;;;;;7.23;6.53;;;12.50;99.90;;;;;;5025044;28;20175;-78
2022/09/25 04:44:52;;;;;;;8.57;6.40;;;12.50;99.90;;;;;;5037235;28;20203;-77
2022/09/25 04:47:18;;;;;;;7.30;6.60;;;12.50;99.90;;;;;;5058726;22;20482;-74
2022/09/25 04:49:44;;;;;;;7.13;6.53;;;12.40;99.90;;;;;;5033717;28;20541;-74
2022/09/25 04:52:12;;;;;;;6.70;6.03;;;12.50;99.90;;;;;;5033621;28;20944;-74
2022/09/25 04:54:38;;;;;;;7.83;7.03;;;12.40;99.90;;;;;;5033319;28;20167;-75
2022/09/25 04:57:04;;;;;;;6.83;6.20;;;12.40;99.90;;;;;;5033006;28;20401;-75
2022/09/25 04:59:30;;;;;;;7.07;6.30;;;12.40;99.90;;;;;;5033207;28;20182;-75
2022/09/25 05:01:56;;;;;;;7.23;6.57;;;12.40;99.90;;;;;;5015287;28;20410;-74
2022/09/25 05:04:21;;;;;;;6.90;6.17;;;12.40;99.90;;;;;;5032904;28;20851;-74
2022/09/25 05:06:47;;;;;;;7.27;6.37;;;12.40;99.90;;;;;;5032862;28;20160;-74
2022/09/25 05:09:12;;;;;;;7.73;6.90;;;12.30;99.90;;;;;;5032977;28;20172;-74
2022/09/25 05:11:38;;;;;;;6.70;5.87;;;12.30;99.90;;;;;;5032818;28;20168;-74
2022/09/25 05:14:03;;;;;;;6.90;6.17;;;12.30;99.90;;;;;;5032853;28;20176;-74
2022/09/25 05:16:29;;;;;;;7.47;6.67;;;12.30;99.90;;;;;;5014930;28;20180;-74
2022/09/25 05:18:55;;;;;;;7.07;6.40;;;12.30;99.90;;;;;;5032801;28;20657;-74
2022/09/25 05:21:21;;;;;;;12.33;6.33;;;12.30;99.90;;;;;;5032935;28;20406;-74
2022/09/25 05:23:47;;;;;;;9.57;7.07;;;12.30;99.90;;;;;;5032853;28;20472;-74
2022/09/25 05:26:12;;;;;;;7.03;6.33;;;12.30;99.90;;;;;;5032542;28;20438;-74
2022/09/25 05:28:38;;;;;;;7.70;6.87;;;12.30;99.90;;;;;;5032866;28;20275;-74
2022/09/25 05:31:04;;;;;;;12.50;7.70;;;12.30;99.90;;;;;;5032954;28;20160;-74
2022/09/25 05:33:31;;;;;;;7.10;6.50;;;12.30;99.90;;;;;;5032677;28;20167;-74
2022/09/25 05:36:00;;;;;;;8.23;6.40;;;12.30;99.90;;;;;;5032408;28;20457;-74
2022/09/25 05:38:27;;;;;;;8.43;7.60;;;12.30;99.90;;;;;;5032646;28;20430;-74
2022/09/25 05:40:54;;;;;;;8.30;7.53;;;12.30;99.90;;;;;;5032492;28;20480;-74
2022/09/25 05:43:20;;;;;;;7.63;6.87;;;12.30;99.90;;;;;;5014687;28;20457;-74
2022/09/25 05:45:53;;;;;;;7.07;6.40;;;12.30;99.90;;;;;;5014578;28;20472;-74
2022/09/25 05:48:18;;;;;;;7.63;6.90;;;12.30;99.90;;;;;;5032276;28;20446;-74
2022/09/25 05:50:49;;;;;;;10.63;6.97;;;12.30;99.90;;;;;;5032546;28;20768;-75
2022/09/25 05:53:14;;;;;;;7.33;6.63;;;12.30;99.90;;;;;;5032578;28;20545;-75
2022/09/25 05:55:40;;;;;;;7.97;6.43;;;12.30;99.90;;;;;;5032444;28;20445;-75
2022/09/25 05:58:05;;;;;;;11.33;7.17;;;12.40;99.90;;;;;;5032335;28;20187;-75
2022/09/25 06:00:31;;;;;;;7.70;7.00;;;12.40;99.90;;;;;;5014583;28;20179;-75
2022/09/25 06:02:58;;;;;;;10.80;7.73;;;12.40;99.90;;;;;;5032229;28;20201;-75
2022/09/25 06:05:23;;;;;;;9.37;7.87;;;12.40;99.90;;;;;;5032152;28;20413;-75
2022/09/25 06:07:53;;;;;;;8.67;6.63;;;12.40;99.90;;;;;;5032063;28;20924;-75
2022/09/25 06:10:19;;;;;;;6.70;5.70;;;12.40;99.90;;;;;;5032420;28;20217;-75
2022/09/25 06:12:44;;;;;;;10.80;7.80;;;12.50;99.90;;;;;;5032131;28;20442;-75
2022/09/25 06:15:10;;;;;;;10.60;8.77;;;12.60;99.90;;;;;;5031942;28;20175;-75
2022/09/25 06:17:35;;;;;;;8.50;7.03;;;12.70;99.90;;;;;;5032041;28;20202;-76
2022/09/25 06:20:01;;;;;;;9.00;8.07;;;12.80;99.90;;;;;;5032165;28;20218;-75
2022/09/25 06:22:26;;;;;;;9.93;8.93;;;12.90;99.90;;;;;;5032059;28;20182;-75
2022/09/25 06:24:51;;;;;;;8.73;7.87;;;13.00;99.90;;;;;;5031718;28;20206;-75
2022/09/25 06:27:17;;;;;;;8.50;7.80;;;13.30;99.90;;;;;;5031734;28;20191;-75
2022/09/25 06:29:42;;;;;;;6.80;6.20;;;13.40;99.90;;;;;;5032215;28;20598;-75
2022/09/25 06:32:08;;;;;;;6.73;6.03;;;13.80;99.90;;;;;;5031876;28;20513;-75
2022/09/25 06:34:33;;;;;;;7.60;6.90;;;14.00;99.90;;;;;;5031673;28;20182;-75
2022/09/25 06:36:59;;;;;;;7.70;6.17;;;14.00;99.90;;;;;;5032128;28;20172;-75
2022/09/25 06:39:25;;;;;;;8.43;7.63;;;14.10;99.90;;;;;;5031739;28;20212;-75
2022/09/25 06:41:53;;;;;;;9.07;7.27;;;13.80;99.90;;;;;;5031749;28;20493;-75
2022/09/25 06:44:20;;;;;;;8.27;6.80;;;13.80;99.90;;;;;;5031451;28;20207;-75
2022/09/25 06:46:53;;;;;;;9.13;6.90;;;13.70;99.90;;;;;;5031551;28;20402;-75
2022/09/25 06:49:18;;;;;;;8.03;7.33;;;13.70;99.90;;;;;;5031685;28;20718;-75
2022/09/25 06:51:45;;;;;;;9.20;7.13;;;13.80;99.90;;;;;;5031500;28;20395;-75
2022/09/25 06:54:11;;;;;;;7.93;7.23;;;13.80;99.90;;;;;;5031656;28;20188;-75
2022/09/25 06:56:36;;;;;;;8.40;7.23;;;13.80;99.90;;;;;;5031553;28;20398;-75
2022/09/25 06:59:03;;;;;;;8.23;7.40;;;13.80;99.90;;;;;;5033159;28;20278;-74
2022/09/25 07:01:28;;;;;;;10.70;7.20;;;14.00;99.90;;;;;;5037155;28;20238;-74
2022/09/25 07:03:54;;;;;;;7.30;6.63;;;14.00;99.90;;;;;;5035263;28;20533;-74
2022/09/25 07:06:25;;;;;;;7.67;6.97;;;13.70;99.90;;;;;;5035488;28;20593;-74
2022/09/25 07:08:51;;;;;;;8.27;7.43;;;14.00;99.90;;;;;;5035711;28;20555;-74
2022/09/25 07:11:21;;;;;;;7.60;6.80;;;13.80;99.90;;;;;;5035254;28;20478;-74
2022/09/25 07:13:51;;;;;;;7.97;7.17;;;13.70;99.90;;;;;;5035670;28;20175;-74
2022/09/25 07:16:18;;;;;;;13.90;10.27;;;13.80;99.90;;;;;;5035472;28;20623;-74
2022/09/25 07:18:45;;;;;;;7.40;6.70;;;14.00;99.90;;;;;;5034829;28;20426;-75
2022/09/25 07:21:16;;;;;;;9.90;7.37;;;14.30;99.90;;;;;;5034973;28;20422;-75
2022/09/25 07:23:42;;;;;;;9.37;7.80;;;14.00;99.90;;;;;;5034924;28;20461;-75
2022/09/25 07:26:16;;;;;;;8.70;7.60;;;14.20;99.90;;;;;;5034682;28;20402;-74
2022/09/25 07:28:43;;;;;;;7.00;6.30;;;14.30;99.90;;;;;;5034821;28;20413;-74
2022/09/25 07:31:10;;;;;;;7.60;6.97;;;14.30;99.90;;;;;;5034633;28;20489;-74
2022/09/25 07:33:35;;;;;;;8.20;7.40;;;14.70;99.90;;;;;;5034714;28;20411;-74
2022/09/25 07:36:01;;;;;;;8.30;7.27;;;15.70;99.90;;;;;;5016670;28;20558;-74
2022/09/25 07:38:27;;;;;;;7.53;6.57;;;16.00;99.90;;;;;;5034541;28;20265;-74
2022/09/25 07:40:52;;;;;;;8.00;6.20;;;16.50;99.90;;;;;;5034659;28;20180;-75
2022/09/25 07:43:18;;;;;;;8.30;7.30;;;16.30;99.90;;;;;;5034568;28;20208;-74
2022/09/25 07:45:52;;;;;;;7.20;6.50;;;16.20;99.90;;;;;;5034246;28;20194;-74
2022/09/25 07:48:20;;;;;;;8.43;7.00;;;16.20;99.90;;;;;;5034351;28;20283;-73
2022/09/25 07:50:48;;;;;;;7.53;6.80;;;16.10;99.90;;;;;;5034394;28;20433;-74
2022/09/25 07:53:13;;;;;;;8.57;7.77;;;15.60;99.90;;;;;;5034442;28;20828;-74
2022/09/25 07:55:40;;;;;;;7.23;6.63;;;15.80;99.90;;;;;;5034603;28;20407;-74
2022/09/25 07:58:05;;;;;;;7.60;6.90;;;15.10;99.90;;;;;;5034748;28;20295;-74
2022/09/25 08:00:31;;;;;;;9.03;6.87;;;15.40;99.90;;;;;;5033985;28;20433;-74
2022/09/25 08:02:58;;;;;;;8.77;7.87;;;15.30;99.90;;;;;;5034235;28;20308;-75
2022/09/25 08:05:25;;;;;;;7.33;6.63;;;15.80;99.90;;;;;;5034212;28;20800;-74
2022/09/25 08:07:52;;;;;;;10.60;6.40;;;16.00;99.90;;;;;;5034042;28;20432;-74
2022/09/25 08:10:18;;;;;;;8.20;7.40;;;15.80;99.90;;;;;;5033818;28;20408;-74
2022/09/25 08:12:43;;;;;;;8.10;7.30;;;15.60;99.90;;;;;;5016209;28;20460;-74
2022/09/25 08:15:09;;;;;;;7.57;6.73;;;16.00;99.90;;;;;;5033646;28;20179;-74
2022/09/25 08:17:35;;;;;;;8.53;7.50;;;15.90;99.90;;;;;;5033994;28;20681;-74
2022/09/25 08:20:01;;;;;;;8.30;7.50;;;16.20;99.90;;;;;;5033796;28;20449;-73
2022/09/25 08:22:26;;;;;;;8.90;6.80;;;16.40;99.90;;;;;;5040618;28;20645;-73
2022/09/25 08:24:52;;;;;;;10.00;7.47;;;16.60;99.90;;;;;;5034170;28;20453;-74
2022/09/25 08:27:18;;;;;;;8.43;7.63;;;16.90;99.90;;;;;;5033764;28;20188;-74
2022/09/25 08:29:44;;;;;;;7.67;6.87;;;17.10;99.90;;;;;;5033410;28;20411;-74
2022/09/25 08:32:09;;;;;;;7.40;6.70;;;17.30;99.90;;;;;;5033928;28;20176;-74
2022/09/25 08:34:35;;;;;;;9.20;7.20;;;17.10;99.90;;;;;;5033526;28;20247;-74
2022/09/25 08:37:01;;;;;;;7.23;6.63;;;17.60;99.90;;;;;;5033696;28;20169;-74
2022/09/25 08:39:26;;;;;;;7.50;6.70;;;18.30;99.90;;;;;;5033410;28;20180;-74
2022/09/25 08:41:54;;;;;;;8.83;7.13;;;18.80;99.90;;;;;;5033887;28;20182;-74
2022/09/25 08:44:40;;;;;;;7.20;6.60;;;18.30;99.90;;;;;;5033511;28;20210;-74
2022/09/25 08:50:13;;;;;;;7.70;6.63;;;17.90;99.90;;;;;;5034303;28;20412;-74
2022/09/25 08:52:43;;;;;;;7.90;7.10;;;18.20;99.90;;;;;;5033263;28;20429;-74
2022/09/25 08:58:27;;;;;;;8.10;7.33;;;17.80;99.90;;;;;;5033468;28;20492;-74
2022/09/25 09:01:00;;;;;;;7.90;7.10;;;17.20;99.90;;;;;;5032995;28;20410;-74
2022/09/25 09:03:29;;;;;;;9.30;7.17;;;16.90;99.90;;;;;;5032986;28;20532;-73
2022/09/25 09:06:16;;;;;;;8.47;7.57;;;16.70;99.90;;;;;;5032911;28;20460;-73
2022/09/25 09:08:46;;;;;;;8.10;7.40;;;16.60;99.90;;;;;;5032974;28;20466;-73
2022/09/25 09:11:23;;;;;;;8.10;7.37;;;16.90;99.90;;;;;;5032919;28;20761;-73
2022/09/25 09:13:56;;;;;;;11.80;7.70;;;17.00;99.90;;;;;;5032953;28;20443;-74
2022/09/25 09:16:25;;;;;;;7.43;6.73;;;17.00;99.90;;;;;;5032671;28;20699;-74
2022/09/25 09:18:51;;;;;;;8.67;7.77;;;17.00;99.90;;;;;;5032391;28;20439;-74
2022/09/25 09:21:22;;;;;;;8.93;7.83;;;17.10;99.90;;;;;;5032105;28;20421;-74
2022/09/25 09:24:20;;;;;;;9.80;8.87;;;17.50;99.90;;;;;;5014697;28;20451;-74
2022/09/25 09:27:11;;;;;;;8.63;7.40;;;17.90;99.90;;;;;;5032646;28;20458;-74
2022/09/25 09:30:12;;;;;;;8.67;6.90;;;18.50;99.90;;;;;;5032955;28;20477;-74
2022/09/25 09:32:49;;;;;;;8.63;7.57;;;18.30;99.90;;;;;;5019666;28;20493;-74
2022/09/25 09:35:20;;;;;;;7.80;7.00;;;18.80;99.90;;;;;;5032525;28;20428;-74
2022/09/25 09:37:49;;;;;;;8.37;7.60;;;18.30;99.90;;;;;;5032559;28;20512;-74
2022/09/25 09:40:43;;;;;;;7.60;6.27;;;18.50;99.90;;;;;;5014655;28;20416;-73
2022/09/25 09:43:38;;;;;;;7.37;6.67;;;17.60;99.90;;;;;;5032424;28;20824;-73
2022/09/25 09:46:06;;;;;;;8.97;8.00;;;17.40;99.90;;;;;;4944294;28;21027;-73
2022/09/25 09:48:40;;;;;;;7.50;6.83;;;17.00;99.90;;;;;;5032060;28;20459;-74
2022/09/25 09:51:14;;;;;;;9.27;7.70;;;17.40;99.90;;;;;;5032199;28;20419;-73
2022/09/25 09:53:48;;;;;;;9.47;8.57;;;17.40;99.90;;;;;;5032076;28;20494;-74
2022/09/25 09:56:22;;;;;;;9.53;8.63;;;17.50;99.90;;;;;;5031879;28;20403;-74
2022/09/25 09:58:54;;;;;;;8.93;8.03;;;17.50;99.90;;;;;;5031981;28;20427;-74
2022/09/25 10:01:23;;;;;;;9.10;8.30;;;17.50;99.90;;;;;;5032454;28;20395;-73
2022/09/25 10:04:05;;;;;;;11.50;9.33;;;17.50;99.90;;;;;;5031851;28;20544;-74
2022/09/25 10:06:36;;;;;;;9.23;8.53;;;17.30;99.90;;;;;;5031776;28;20398;-74
2022/09/25 10:09:01;;;;;;;7.97;7.23;;;17.50;99.90;;;;;;5031859;28;20418;-74
2022/09/25 10:11:30;;;;;;;10.50;9.47;;;17.60;99.90;;;;;;5031712;28;20410;-73
2022/09/25 10:13:58;;;;;;;9.53;8.60;;;17.40;99.90;;;;;;5031857;28;20181;-74
2022/09/25 10:16:25;;;;;;;10.10;9.10;;;17.50;99.90;;;;;;5031630;28;20467;-73
2022/09/25 10:19:18;;;;;;;11.43;9.13;;;17.90;99.90;;;;;;5014046;28;20476;-73
2022/09/25 10:21:59;;;;;;;10.13;9.23;;;18.10;99.90;;;;;;5031685;28;20464;-74
2022/09/25 10:24:50;;;;;;;9.50;8.60;;;18.20;99.90;;;;;;5032701;28;20445;-73
2022/09/25 10:27:26;;;;;;;11.43;9.30;;;17.80;99.90;;;;;;5031988;28;20474;-74
2022/09/25 10:30:10;;;;;;;9.90;8.50;;;18.10;99.90;;;;;;5032653;28;20401;-74
2022/09/25 10:32:47;;;;;;;10.33;8.90;;;18.30;99.90;;;;;;5032092;28;20983;-75
2022/09/25 10:35:15;;;;;;;9.53;8.53;;;18.30;99.90;;;;;;5031867;28;20452;-75
2022/09/25 10:37:41;;;;;;;10.93;9.93;;;18.00;99.90;;;;;;5031787;28;20924;-74
2022/09/25 10:40:24;;;;;;;12.83;8.03;;;18.20;99.90;;;;;;5031573;28;20399;-74
2022/09/25 10:43:33;;;;;;;8.87;8.07;;;18.30;99.90;;;;;;5031484;28;20402;-74
2022/09/25 10:46:06;;;;;;;10.10;8.77;;;18.80;99.90;;;;;;4976754;28;20937;-73
2022/09/25 10:51:23;;;;;;;9.03;8.13;;;18.70;99.90;;;;;;5031518;28;20451;-74
2022/09/25 10:54:07;;;;;;;8.33;7.60;;;18.60;99.90;;;;;;5031346;28;20788;-73
2022/09/25 10:56:34;;;;;;;11.60;8.10;;;18.40;99.90;;;;;;5031043;28;20406;-73
2022/09/25 10:59:01;;;;;;;7.97;7.17;;;18.80;99.90;;;;;;5031265;28;20859;-74
2022/09/25 11:01:36;;;;;;;8.60;6.90;;;18.90;99.90;;;;;;5013499;28;20420;-74
2022/09/25 11:04:15;;;;;;;9.87;8.00;;;18.90;99.90;;;;;;5031222;28;20534;-73
2022/09/25 11:06:52;;;;;;;8.80;7.90;;;18.10;99.90;;;;;;5031322;28;20474;-74
2022/09/25 11:09:26;;;;;;;9.07;7.63;;;18.10;99.90;;;;;;5031337;28;20769;-74
2022/09/25 11:12:03;;;;;;;9.43;8.50;;;18.60;99.90;;;;;;5031267;28;20408;-74
2022/09/25 11:14:32;;;;;;;10.07;8.63;;;18.40;99.90;;;;;;5031249;28;20773;-74
2022/09/25 11:17:00;;;;;;;10.00;8.83;;;18.20;99.90;;;;;;5031261;28;20827;-73
2022/09/25 11:19:29;;;;;;;10.20;8.27;;;18.50;99.90;;;;;;5031388;28;20411;-74
2022/09/25 11:22:06;;;;;;;8.60;7.80;;;18.80;99.90;;;;;;5031215;28;20428;-74
2022/09/25 11:24:50;;;;;;;8.50;7.00;;;19.10;99.90;;;;;;5031186;28;20475;-74
2022/09/25 11:27:30;;;;;;;8.33;7.53;;;19.30;99.90;;;;;;5031632;28;20963;-74
2022/09/25 11:30:07;;;;;;;8.93;8.13;;;18.90;99.90;;;;;;5031190;28;20412;-74
2022/09/25 11:32:56;;;;;;;8.27;7.47;;;19.10;99.90;;;;;;5031241;28;20437;-74
2022/09/25 11:35:59;;;;;;;8.73;7.57;;;19.20;99.90;;;;;;5030979;28;20427;-74
2022/09/25 11:41:44;;;;;;;7.70;6.90;;;19.50;99.90;;;;;;5031237;28;20730;-76
2022/09/25 11:44:33;;;;;;;7.00;6.37;;;19.90;99.90;;;;;;5031477;28;20454;-75
2022/09/25 11:47:23;;;;;;;8.00;6.73;;;19.90;99.90;;;;;;5034561;28;20391;-74
2022/09/25 11:49:52;;;;;;;8.13;7.23;;;20.00;99.90;;;;;;5021870;28;20432;-74
2022/09/25 11:52:31;;;;;;;8.00;7.20;;;20.30;99.90;;;;;;5034698;28;20407;-74
2022/09/25 11:55:27;;;;;;;6.77;5.67;;;19.70;99.90;;;;;;5034238;28;20405;-74
2022/09/25 11:58:14;;;;;;;6.57;5.97;;;19.30;99.90;;;;;;5034356;28;20433;-75
2022/09/25 12:01:00;;;;;;;5.80;5.30;;;19.60;99.90;;;;;;5034471;28;20403;-74
2022/09/25 12:03:57;;;;;;;5.93;4.90;;;19.80;99.90;;;;;;5034276;28;21022;-73
2022/09/25 12:06:52;;;;;;;6.73;6.00;;;19.70;99.90;;;;;;5034079;28;20393;-74
2022/09/25 12:09:46;;;;;;;7.80;6.03;;;20.00;99.90;;;;;;5034146;28;20412;-74
2022/09/25 12:12:50;;;;;;;5.53;5.03;;;19.70;99.90;;;;;;5034482;28;20479;-75
2022/09/25 12:16:15;;;;;;;6.20;5.60;;;19.80;99.90;;;;;;5034340;28;20398;-74
2022/09/25 12:19:08;;;;;;;9.20;5.73;;;20.10;99.90;;;;;;4980456;28;20444;-75
2022/09/25 12:21:43;;;;;;;6.37;5.53;;;20.40;99.90;;;;;;5034647;28;20905;-74
2022/09/25 12:24:32;;;;;;;5.77;5.17;;;20.10;99.90;;;;;;5034263;28;20968;-74
2022/09/25 12:27:13;;;;;;;6.37;5.80;;;19.60;99.90;;;;;;5033945;28;20713;-74
2022/09/25 12:30:10;;;;;;;5.37;4.87;;;19.60;99.90;;;;;;5033984;28;20396;-74
2022/09/25 12:32:45;;;;;;;5.47;4.87;;;19.90;99.90;;;;;;5014213;28;20416;-73
2022/09/25 12:35:48;;;;;;;5.90;5.10;;;19.90;99.90;;;;;;5033897;28;20394;-75
2022/09/25 12:38:37;;;;;;;4.60;4.20;;;19.50;99.90;;;;;;5034002;28;20419;-74
2022/09/25 12:41:40;;;;;;;5.83;5.27;;;19.70;99.90;;;;;;5033792;28;20404;-74
2022/09/25 12:44:16;;;;;;;5.17;4.37;;;19.80;99.90;;;;;;4982819;28;20457;-75
2022/09/25 12:46:49;;;;;;;4.20;3.80;;;19.60;99.90;;;;;;5033640;28;20487;-75
2022/09/25 12:49:37;;;;;;;5.60;3.70;;;19.50;99.90;;;;;;5033853;28;20411;-75
2022/09/25 12:52:13;;;;;;;5.07;4.57;;;19.50;99.90;;;;;;5033764;28;20394;-74
2022/09/25 12:54:59;;;;;;;4.33;3.93;;;19.60;99.90;;;;;;5033529;28;20901;-74
2022/09/25 12:57:40;;;;;;;4.53;4.13;;;19.60;99.90;;;;;;5032519;28;20440;-74
2022/09/25 13:00:20;;;;;;;5.93;5.37;;;20.00;99.90;;;;;;5033701;28;20439;-74
2022/09/25 13:02:48;;;;;;;4.40;4.00;;;19.90;99.90;;;;;;5033843;28;20484;-74
2022/09/25 13:05:34;;;;;;;4.30;3.90;;;20.00;99.90;;;;;;5033532;28;20493;-74
2022/09/25 13:08:22;;;;;;;4.30;3.93;;;20.00;99.90;;;;;;5033507;28;20511;-74
2022/09/25 13:10:53;;;;;;;4.00;3.60;;;19.80;99.90;;;;;;5033647;28;20398;-74
2022/09/25 13:13:24;;;;;;;4.47;4.07;;;19.40;99.90;;;;;;5033775;28;20461;-75
2022/09/25 13:15:53;;;;;;;4.53;3.97;;;19.60;99.90;;;;;;5033362;28;20487;-74
2022/09/25 13:18:21;;;;;;;4.80;4.40;;;19.60;99.90;;;;;;5033584;28;20522;-73
2022/09/25 13:20:50;;;;;;;4.20;3.80;;;19.80;99.90;;;;;;5033345;28;20400;-74
2022/09/25 13:23:40;;;;;;;4.67;4.23;;;19.60;99.90;;;;;;5031960;28;20487;-74
2022/09/25 13:26:16;;;;;;;5.23;4.73;;;19.30;99.90;;;;;;5030652;28;20431;-74
2022/09/25 13:28:58;;;;;;;4.30;3.90;;;19.50;99.90;;;;;;5033199;28;20482;-73
2022/09/25 13:31:29;;;;;;;4.50;4.10;;;19.60;99.90;;;;;;5033239;28;20420;-73